Airfield :
LOGIN :

Register | Disclaimer

   EN    FR    IT 

 










Legend :    VFR   Marginal VFR   IFR   Intensive IFR   Very Intensive IFR
Visi :
Ceiling :
>= 8 km
>= 3000ft
5 to 8 km
1000 to 3000 ft
1500m to 5 km
500 to 1000 ft
800 to 1500m
200 to 500 ft
< 800m
< 200 ft
Symbols :   Thunderstorms  Fog  Heavy snow  Heavy precipitations  Wind > 20 kt
SIGMETs :     Misc.  Thunderstorms  Icing  Turbulence  Mountain Waves  Volcanic Ashes






- Airport Elevation : 226 ft
- IATA code : BEX


EGUB - RAF Benson

CURRENT METAR :
  • 131150Z 24006KT 9999 FEW020 09/04 Q0999 TEMPO SCT022 RMK BLU TEMPO WHT

EXPIRED METARs :
  • 131121Z 21006KT 9999 FEW015 08/05 Q1000 TEMPO SCT020 RMK BLU TEMPO WHT
  • 131050Z 22007KT 9999 FEW014 BKN050 08/05 Q1000 TEMPO SCT018 RMK BLU TEMPO WHT
  • 131020Z 22006KT 9999 FEW012 BKN050 08/05 Q1001 TEMPO SCT020 RMK BLU TEMPO WHT
  • 130950Z 20004KT 9999 FEW044 07/05 Q1001 TEMPO SCT018 RMK BLU TEMPO WHT
  • 130920Z 17004KT 9999 SCT046 SCT250 05/04 Q1001 TEMPO SCT018 RMK BLU TEMPO WHT
  • 130850Z 18004KT CAVOK 05/04 Q1001 TEMPO SCT018 RMK BLU TEMPO WHT

TAF TAF EGUB
Valid from the 13 at 12:00 until the 13 at 21:00 UTC


131057Z 1312/1321 20008KT 9999 FEW022
TEMPO 1312/1318 SCT018
BECMG 1318/1321 BKN016
TEMPO 1320/1321 6000 RA BKN014
ATIS : +44 1491-837766 (x7524)



MET'MAP, your aeronautical weather chart ! - Copyright ORBIFLY December 2007 - Disclaimer

ORBIFLY MET'MAP TEAM :

Programming & Development : Alexandra Zaïnal
Concept & Development : Baudouin d'Aumeries
Co-Development & Prog : Marc-Olivier Méhu
Technical & hardware support : Manuel Goepfert

Contact : metmap@orbifly.com




SOURCES & CREDITS :

   NOAA